Time;durP1;ratioP1;P1;durP2;ratioP2;P2;SDS_P1;SDS_P2;PMS_P1;PMS_P2;Temp;Humidity;BMP_temperature;BMP_pressure;BME280_temperature;BME280_humidity;BME280_pressure;Samples;Min_cycle;Max_cycle;Signal;HPM_P1;HPM_P2
2022/05/22 00:01:57;;;;;;;6.93;2.88;;;;;;;6.11;51.54;98779.06;5034774;28;20422;-81
2022/05/22 00:04:26;;;;;;;8.73;5.07;;;;;;;6.26;51.65;98816.28;5034528;28;20057;-80
2022/05/22 00:06:53;;;;;;;17.30;9.70;;;;;;;6.23;51.37;98800.72;5038639;28;20507;-79
2022/05/22 00:09:20;;;;;;;13.75;10.32;;;;;;;6.19;51.61;98807.63;5040698;28;20081;-79
2022/05/22 00:11:47;;;;;;;18.35;11.25;;;;;;;6.00;52.03;98785.06;5052659;28;20065;-81
2022/05/22 00:14:18;;;;;;;17.77;11.98;;;;;;;6.09;51.56;98801.53;5042435;28;20052;-81
2022/05/22 00:17:13;;;;;;;21.17;12.05;;;;;;;5.99;51.88;98797.16;5034015;28;20156;-80
2022/05/22 00:19:43;;;;;;;16.33;11.60;;;;;;;5.83;51.99;98782.34;5018101;28;20054;-79
2022/05/22 00:22:12;;;;;;;16.23;10.52;;;;;;;5.92;52.27;98797.97;5022570;28;20050;-79
2022/05/22 00:24:40;;;;;;;16.48;9.73;;;;;;;5.78;52.80;98795.28;5034425;28;20056;-79
2022/05/22 00:27:07;;;;;;;12.02;7.43;;;;;;;5.82;52.31;98796.19;5033331;28;20505;-80
2022/05/22 00:29:37;;;;;;;12.02;7.72;;;;;;;5.84;52.62;98799.66;5033686;28;20152;-80
2022/05/22 00:32:06;;;;;;;12.90;7.55;;;;;;;5.72;53.00;98790.06;5033782;28;20144;-79
2022/05/22 00:34:36;;;;;;;10.13;6.82;;;;;;;5.74;52.90;98798.72;5033186;28;20091;-80
2022/05/22 00:37:04;;;;;;;11.25;6.50;;;;;;;5.71;52.84;98804.75;5033869;28;20054;-79
2022/05/22 00:39:31;;;;;;;11.00;6.70;;;;;;;5.66;52.76;98798.69;5033598;28;20085;-80
2022/05/22 00:42:01;;;;;;;9.48;5.60;;;;;;;5.59;53.46;98794.31;5033471;28;20092;-80
2022/05/22 00:44:30;;;;;;;8.13;4.55;;;;;;;5.57;53.37;98797.75;5033510;28;20084;-79
2022/05/22 00:46:56;;;;;;;10.07;4.40;;;;;;;5.56;53.68;98796.88;5016137;28;20057;-79
2022/05/22 00:49:27;;;;;;;7.00;3.90;;;;;;;5.55;53.34;98787.41;5015394;28;20060;-80
2022/05/22 00:52:07;;;;;;;7.82;4.03;;;;;;;5.44;53.18;98779.56;5034072;28;20049;-80
2022/05/22 00:54:47;;;;;;;5.47;2.83;;;;;;;5.46;53.25;98776.97;5003595;28;20057;-78
2022/05/22 00:57:29;;;;;;;6.18;2.75;;;;;;;5.41;53.47;98776.06;5036319;28;20057;-80
2022/05/22 00:59:58;;;;;;;;;;;;;;;5.25;53.81;98772.53;5015976;28;20054;-79
2022/05/22 01:03:26;;;;;;;2.17;1.93;;;;;;;5.29;53.19;98774.25;5033055;28;19924;-79
2022/05/22 01:05:17;;;;;;;6.03;2.30;;;;;;;5.28;53.52;98772.53;5032848;28;20053;-79
2022/05/22 01:07:46;;;;;;;3.42;2.08;;;;;;;5.23;53.77;98766.47;5033204;28;20452;-80
2022/05/22 01:10:14;;;;;;;6.93;2.53;;;;;;;5.17;53.61;98762.09;5015236;28;20107;-80
2022/05/22 01:12:45;;;;;;;5.85;2.53;;;;;;;5.04;53.45;98739.56;5004543;28;20153;-79
2022/05/22 01:15:15;;;;;;;2.90;2.20;;;;;;;5.18;53.92;98760.38;4995637;28;20050;-80
2022/05/22 01:17:47;;;;;;;4.78;2.22;;;;;;;5.16;53.82;98754.31;4995296;28;20056;-78
2022/05/22 01:20:17;;;;;;;3.72;2.15;;;;;;;5.16;53.84;98762.06;4995635;28;20053;-80
2022/05/22 01:22:45;;;;;;;5.75;2.53;;;;;;;5.18;53.52;98758.63;4995424;28;20053;-80
2022/05/22 01:25:14;;;;;;;3.67;2.38;;;;;;;5.15;54.27;98771.56;4995860;28;20093;-79
2022/05/22 01:27:42;;;;;;;5.97;2.38;;;;;;;5.13;53.70;98760.34;5013249;28;20056;-80
2022/05/22 01:30:20;;;;;;;10.75;2.28;;;;;;;5.23;53.91;98763.88;5013832;28;20137;-80
2022/05/22 01:32:59;;;;;;;4.45;2.45;;;;;;;5.11;53.39;98737.00;4995671;28;20148;-79
2022/05/22 01:35:30;;;;;;;3.60;2.47;;;;;;;5.24;54.02;98766.44;4980349;28;20062;-82
2022/05/22 01:38:04;;;;;;;5.15;2.63;;;;;;;5.15;53.72;98735.31;4981592;28;20113;-81
2022/05/22 01:40:35;;;;;;;4.47;2.20;;;;;;;5.23;53.91;98744.03;4976212;28;20089;-79
2022/05/22 01:43:05;;;;;;;6.07;2.35;;;;;;;5.31;54.06;98770.84;4976275;28;20153;-80
2022/05/22 01:45:35;;;;;;;3.78;2.35;;;;;;;5.36;53.79;98776.03;4976058;28;20125;-81
2022/05/22 01:48:03;;;;;;;5.07;2.60;;;;;;;5.27;53.75;98756.13;4976029;28;20054;-80
2022/05/22 01:50:41;;;;;;;6.78;2.35;;;;;;;5.45;53.34;98760.56;4975999;28;20054;-81
2022/05/22 01:53:12;;;;;;;4.03;2.38;;;;;;;5.50;53.59;98763.16;4976677;28;20061;-81
2022/05/22 01:55:42;;;;;;;4.50;2.47;;;;;;;5.51;52.94;98750.22;4976341;28;20065;-79
2022/05/22 01:58:09;;;;;;;4.20;2.35;;;;;;;5.60;53.28;98759.78;4996826;28;20424;-79
2022/05/22 02:00:41;;;;;;;4.45;2.42;;;;;;;5.59;52.55;98749.41;4964817;28;20500;-79
2022/05/22 02:03:11;;;;;;;5.38;2.42;;;;;;;5.71;52.49;98762.44;4980237;28;20054;-78
2022/05/22 02:05:43;;;;;;;;;;;;;;;5.57;53.03;98759.78;4980334;28;20054;-79
2022/05/22 02:08:19;;;;;;;5.13;2.10;;;;;;;5.67;52.55;98735.63;4980097;28;19980;-79
2022/05/22 02:10:59;;;;;;;4.10;2.75;;;;;;;5.78;52.34;98738.28;4964057;28;20451;-80
2022/05/22 02:13:36;;;;;;;5.05;2.53;;;;;;;5.94;52.22;98737.53;4981030;28;20528;-79
2022/05/22 02:16:07;;;;;;;3.40;2.30;;;;;;;6.07;51.76;98741.03;4979663;28;20161;-80
2022/05/22 02:18:37;;;;;;;3.17;2.20;;;;;;;6.64;50.81;98696.19;4979321;28;20054;-80
2022/05/22 02:21:05;;;;;;;3.80;2.13;;;;;;;9.27;45.32;98734.97;4996956;28;20050;-80
2022/05/22 02:23:35;;;;;;;5.68;2.13;;;;;;;11.52;40.36;98729.25;4978924;28;20054;-81
2022/05/22 02:26:11;;;;;;;3.15;2.22;;;;;;;12.55;38.27;98725.41;4979570;28;20050;-80
2022/05/22 02:28:40;;;;;;;4.78;2.60;;;;;;;12.94;36.48;98690.44;4979094;28;20483;-80
2022/05/22 02:31:10;;;;;;;7.43;2.75;;;;;;;13.78;35.24;98695.25;4979690;28;20476;-79
2022/05/22 02:33:41;;;;;;;4.07;2.50;;;;;;;14.69;33.50;98711.81;4979705;28;20058;-81
2022/05/22 02:36:14;;;;;;;4.25;2.58;;;;;;;15.74;32.05;98714.47;4979722;28;20043;-78
2022/05/22 02:38:46;;;;;;;2.97;2.20;;;;;;;16.52;30.72;98719.44;4979442;28;20062;-78
2022/05/22 02:41:19;;;;;;;5.38;2.40;;;;;;;17.02;29.97;98712.25;4979924;28;20054;-81
2022/05/22 02:43:55;;;;;;;5.07;2.28;;;;;;;17.67;28.80;98705.94;4992959;28;20101;-79
2022/05/22 02:46:26;;;;;;;3.78;2.50;;;;;;;18.57;27.74;98715.97;4979728;28;20397;-81
2022/05/22 02:48:54;;;;;;;3.72;2.42;;;;;;;18.90;26.86;98708.22;4979745;28;20492;-81
2022/05/22 02:51:32;;;;;;;2.75;2.30;;;;;;;19.07;26.55;98698.59;4963748;28;20100;-80
2022/05/22 02:54:02;;;;;;;5.97;2.70;;;;;;;19.39;25.84;98684.59;4963532;28;20064;-80
2022/05/22 02:56:44;;;;;;;3.03;2.20;;;;;;;19.89;25.25;98674.09;4979269;28;20108;-80
2022/05/22 02:59:28;;;;;;;4.97;2.28;;;;;;;20.11;24.87;98693.22;4996480;28;20064;-80
2022/05/22 03:02:05;;;;;;;4.15;2.65;;;;;;;19.83;24.59;98713.25;4996784;28;20097;-80
2022/05/22 03:04:36;;;;;;;3.83;2.80;;;;;;;19.86;24.55;98695.47;4978743;28;20491;-79
2022/05/22 03:07:12;;;;;;;4.70;2.53;;;;;;;20.25;24.02;98690.66;5004111;28;20081;-81
2022/05/22 03:09:44;;;;;;;4.28;2.42;;;;;;;21.25;22.70;98702.72;4976378;28;20050;-82
2022/05/22 03:12:17;;;;;;;6.45;2.90;;;;;;;20.72;23.44;98682.84;5003560;28;20082;-81
2022/05/22 03:14:57;;;;;;;5.47;2.60;;;;;;;20.82;22.91;98707.88;4998028;28;20046;-79
2022/05/22 03:17:30;;;;;;;5.40;2.80;;;;;;;21.15;22.61;98690.97;4998336;28;20072;-81
2022/05/22 03:19:59;;;;;;;4.93;2.70;;;;;;;21.88;22.00;98667.13;4998371;28;20108;-82
2022/05/22 03:22:30;;;;;;;2.45;2.20;;;;;;;21.63;21.99;98687.19;4998162;28;20508;-81
2022/05/22 03:25:01;;;;;;;4.20;2.60;;;;;;;21.55;21.93;98668.22;4997912;28;20064;-81
2022/05/22 03:27:30;;;;;;;;;;;;;;;21.62;22.52;98685.50;4998505;28;20464;-79
2022/05/22 03:29:58;;;;;;;4.72;2.55;;;;;;;22.01;21.64;98669.88;5016334;28;19932;-80
2022/05/22 03:32:26;;;;;;;6.72;2.50;;;;;;;23.67;20.14;98678.50;4999265;28;20046;-80
2022/05/22 03:35:00;;;;;;;5.43;2.30;;;;;;;24.18;19.43;98685.66;4999076;28;20058;-81
2022/05/22 03:37:28;;;;;;;3.42;2.80;;;;;;;23.31;19.87;98657.88;4998575;28;20054;-82
2022/05/22 03:39:58;;;;;;;4.80;2.40;;;;;;;23.41;19.96;98682.09;4992232;28;20310;-81
2022/05/22 03:42:30;;;;;;;2.90;2.30;;;;;;;24.42;18.63;98677.69;5003096;28;20558;-80
2022/05/22 03:44:59;;;;;;;2.83;2.55;;;;;;;23.42;19.61;98681.13;5026461;28;20057;-78
2022/05/22 03:47:30;;;;;;;4.55;2.70;;;;;;;24.09;19.23;98683.59;5006309;28;20053;-81
2022/05/22 03:50:04;;;;;;;5.25;2.60;;;;;;;23.42;19.58;98686.47;5023005;28;20056;-79
2022/05/22 03:52:42;;;;;;;5.00;2.22;;;;;;;22.84;19.95;98683.19;5000086;28;20069;-80
2022/05/22 03:55:25;;;;;;;6.00;2.20;;;;;;;23.47;19.51;98666.56;4998479;28;20050;-80
2022/05/22 03:57:57;;;;;;;2.10;2.00;;;;;;;23.39;19.44;98673.38;4998216;28;20112;-78
2022/05/22 04:00:26;;;;;;;2.97;2.30;;;;;;;23.06;19.50;98656.91;5000926;28;20206;-79
2022/05/22 04:02:57;;;;;;;4.55;2.40;;;;;;;22.76;19.81;98690.81;5002175;28;20116;-79
2022/05/22 04:05:24;;;;;;;3.65;2.47;;;;;;;21.59;20.83;98631.69;5019606;28;20088;-79
2022/05/22 04:07:53;;;;;;;4.63;2.60;;;;;;;18.99;23.28;98611.66;4996247;28;20420;-80
2022/05/22 04:10:31;;;;;;;3.35;3.05;;;;;;;16.82;26.76;98657.66;4996730;28;20144;-79
2022/05/22 04:12:59;;;;;;;7.50;2.80;;;;;;;15.35;28.51;98657.88;4986731;28;20066;-80
2022/05/22 04:15:27;;;;;;;2.67;2.40;;;;;;;14.44;30.61;98688.06;4979777;28;20050;-80
2022/05/22 04:17:56;;;;;;;4.63;2.67;;;;;;;14.06;31.17;98690.91;4983681;28;20042;-78
2022/05/22 04:20:27;;;;;;;6.10;2.75;;;;;;;13.70;31.85;98672.72;4986377;28;20058;-81
2022/05/22 04:25:59;;;;;;;3.72;2.80;;;;;;;13.66;32.08;98678.97;5002418;28;20100;-80
2022/05/22 04:28:28;;;;;;;4.95;2.28;;;;;;;13.17;32.62;98663.66;4984232;28;20069;-80
2022/05/22 04:31:05;;;;;;;10.85;2.38;;;;;;;12.73;33.99;98684.81;4986013;28;20050;-80
2022/05/22 04:33:39;;;;;;;4.82;2.30;;;;;;;12.44;33.90;98683.75;4986491;28;20161;-82
2022/05/22 04:36:07;;;;;;;3.33;2.47;;;;;;;12.10;34.73;98688.88;5000654;28;20617;-80
2022/05/22 04:38:34;;;;;;;3.88;2.63;;;;;;;11.82;34.82;98681.56;4985126;28;20050;-78
2022/05/22 04:41:02;;;;;;;4.53;2.35;;;;;;;11.71;35.19;98687.94;4985665;28;20050;-82
2022/05/22 04:43:31;;;;;;;3.35;2.33;;;;;;;11.48;35.48;98677.00;4986590;28;20046;-79
2022/05/22 04:45:59;;;;;;;3.83;2.17;;;;;;;11.37;35.59;98678.97;4984291;28;20057;-79
2022/05/22 04:48:28;;;;;;;5.60;2.20;;;;;;;11.54;35.93;98686.50;4985925;28;20046;-79
2022/05/22 04:51:01;;;;;;;6.70;2.30;;;;;;;11.32;35.71;98672.13;4983931;28;20061;-80
2022/05/22 04:53:32;;;;;;;3.47;1.75;;;;;;;11.14;36.18;98695.09;4999066;28;20049;-79
2022/05/22 04:56:08;;;;;;;5.47;2.00;;;;;;;11.15;36.75;98686.34;4976374;28;20060;-78
2022/05/22 04:58:54;;;;;;;4.38;2.08;;;;;;;11.30;36.54;98685.19;5001606;28;20424;-82
2022/05/22 05:01:23;;;;;;;4.88;2.20;;;;;;;11.49;36.80;98680.50;4983842;28;20053;-79
2022/05/22 05:04:14;;;;;;;3.40;1.95;;;;;;;11.40;36.34;98684.16;4994573;28;20050;-78
2022/05/22 05:06:53;;;;;;;5.07;2.22;;;;;;;11.30;36.83;98681.72;4984696;28;20077;-79
2022/05/22 05:09:39;;;;;;;4.07;2.00;;;;;;;11.18;37.14;98696.72;5002985;28;20124;-76
2022/05/22 05:12:18;;;;;;;4.20;2.08;;;;;;;10.97;37.28;98682.31;4990070;28;20148;-79
2022/05/22 05:14:47;;;;;;;;;;;;;;;10.92;37.17;98672.81;4995775;28;20049;-78
2022/05/22 05:17:18;;;;;;;4.00;2.08;;;;;;;11.38;36.81;98662.41;4995961;28;20421;-79
2022/05/22 05:19:46;;;;;;;2.53;1.85;;;;;;;11.59;35.90;98668.94;5014563;28;20180;-79
2022/05/22 05:22:15;;;;;;;6.88;2.28;;;;;;;11.37;36.54;98680.72;4995167;28;20054;-78
2022/05/22 05:24:45;;;;;;;5.18;2.30;;;;;;;11.29;36.79;98667.78;5013115;28;20161;-81
2022/05/22 05:27:16;;;;;;;6.55;2.40;;;;;;;11.46;36.68;98668.34;4995836;28;20084;-79
2022/05/22 05:30:11;;;;;;;2.00;1.75;;;;;;;11.94;35.53;98666.53;5001154;28;20049;-78
2022/05/22 05:32:43;;;;;;;5.88;2.60;;;;;;;11.96;35.37;98662.13;4993222;28;20065;-79
2022/05/22 05:35:31;;;;;;;6.55;2.22;;;;;;;11.97;35.55;98674.34;5014320;28;20064;-81
2022/05/22 05:38:02;;;;;;;4.25;1.92;;;;;;;12.04;35.59;98665.44;5006300;28;20530;-80
2022/05/22 05:40:30;;;;;;;4.38;2.42;;;;;;;11.96;35.29;98662.13;5014394;28;20060;-82
2022/05/22 05:42:58;;;;;;;3.40;2.05;;;;;;;11.98;35.47;98656.00;5013721;28;20418;-82
2022/05/22 05:45:25;;;;;;;4.38;2.00;;;;;;;12.02;34.54;98660.28;4997890;28;20076;-81
2022/05/22 05:47:57;;;;;;;3.08;1.80;;;;;;;11.84;34.87;98681.53;5014438;28;20053;-80
2022/05/22 05:50:35;;;;;;;4.63;1.98;;;;;;;11.34;35.32;98638.97;5012628;28;20057;-83
2022/05/22 05:53:10;;;;;;;4.50;1.98;;;;;;;11.27;35.35;98678.28;5005109;28;20057;-82
2022/05/22 05:55:37;;;;;;;2.00;1.70;;;;;;;11.40;35.50;98660.63;5025034;28;20077;-80
2022/05/22 05:58:37;;;;;;;5.82;2.25;;;;;;;11.26;35.71;98667.84;5005358;28;20077;-79
2022/05/22 06:01:24;;;;;;;6.25;2.20;;;;;;;11.16;35.80;98677.59;5006271;28;20045;-84
2022/05/22 06:07:07;;;;;;;3.15;1.83;;;;;;;11.15;35.00;98647.13;4986504;28;20052;-80
2022/05/22 06:09:37;;;;;;;2.80;1.83;;;;;;;11.22;34.84;98680.09;4996292;28;20112;-81
2022/05/22 06:12:43;;;;;;;5.30;2.30;;;;;;;11.13;34.40;98666.34;5010968;28;20065;-81
2022/05/22 06:15:14;;;;;;;2.88;1.90;;;;;;;11.11;35.24;98674.22;4995723;28;20088;-80
2022/05/22 06:17:48;;;;;;;3.67;2.07;;;;;;;11.05;35.09;98642.97;4994885;28;20053;-79
2022/05/22 06:20:34;;;;;;;;;;;;;;;11.00;35.10;98673.53;4995461;28;20284;-84
2022/05/22 06:23:12;;;;;;;4.05;1.95;;;;;;;10.93;34.59;98635.34;4997533;28;19925;-80
2022/05/22 06:26:09;;;;;;;3.92;1.42;;;;;;;10.92;33.88;98662.34;5012430;28;20427;-84
2022/05/22 06:28:45;;;;;;;2.50;1.48;;;;;;;10.80;34.87;98677.34;4973577;28;20046;-82
2022/05/22 06:31:50;;;;;;;3.03;1.90;;;;;;;10.72;35.03;98687.06;4932714;29;20054;-83
2022/05/22 06:34:44;;;;;;;7.03;2.20;;;;;;;10.55;35.78;98670.78;4950865;29;20063;-84
2022/05/22 06:37:30;;;;;;;3.83;1.95;;;;;;;10.82;35.90;98675.59;4990200;28;20148;-85
2022/05/22 06:40:19;;;;;;;3.42;1.88;;;;;;;10.97;35.08;98697.09;5015088;28;20067;-81
2022/05/22 06:42:53;;;;;;;5.15;2.05;;;;;;;10.78;34.91;98686.13;5029828;28;20054;-84
2022/05/22 06:45:38;;;;;;;5.15;1.70;;;;;;;10.77;35.03;98685.22;5031297;28;20046;-79
2022/05/22 06:48:24;;;;;;;5.63;1.98;;;;;;;10.66;35.51;98671.47;5015178;28;20566;-80
2022/05/22 06:51:10;;;;;;;4.03;2.00;;;;;;;10.81;35.25;98681.69;5032309;28;20063;-83
2022/05/22 06:53:57;;;;;;;4.30;1.63;;;;;;;10.84;34.87;98705.16;5023591;28;20046;-80
2022/05/22 06:56:44;;;;;;;1.70;1.60;;;;;;;10.85;35.10;98672.06;4982695;28;20069;-80
2022/05/22 06:59:30;;;;;;;3.80;1.80;;;;;;;10.92;33.76;98655.38;5020063;28;20050;-80
2022/05/22 07:02:35;;;;;;;4.75;2.00;;;;;;;10.93;34.38;98679.78;4971610;28;20054;-80
2022/05/22 07:05:14;;;;;;;5.22;2.08;;;;;;;10.91;34.26;98682.41;4991317;28;20260;-79
2022/05/22 07:08:00;;;;;;;2.20;2.00;;;;;;;10.89;34.94;98667.66;5010705;28;20060;-78
2022/05/22 07:13:42;;;;;;;2.80;1.75;;;;;;;11.05;34.54;98663.88;4998980;28;20057;-83
2022/05/22 07:16:23;;;;;;;2.50;1.92;;;;;;;11.21;34.16;98681.00;5010982;28;20062;-81
2022/05/22 07:19:11;;;;;;;3.38;1.75;;;;;;;11.05;34.35;98656.88;4997771;28;20100;-81
2022/05/22 07:22:00;;;;;;;3.35;1.85;;;;;;;11.30;33.39;98643.38;5006886;28;20053;-80
2022/05/22 07:24:46;;;;;;;3.85;2.30;;;;;;;11.45;32.91;98658.75;5014575;28;20056;-78
2022/05/22 07:27:34;;;;;;;4.53;1.63;;;;;;;11.34;33.29;98658.13;5033314;28;20144;-80
2022/05/22 07:30:22;;;;;;;4.90;2.20;;;;;;;11.31;33.48;98670.38;5025549;28;20053;-81
2022/05/22 07:33:07;;;;;;;2.40;1.77;;;;;;;11.53;32.94;98652.50;5009530;28;20042;-80
2022/05/22 07:35:58;;;;;;;4.38;1.98;;;;;;;11.80;32.56;98643.25;5013613;28;20492;-82
2022/05/22 07:39:01;;;;;;;4.15;1.92;;;;;;;11.63;32.95;98657.53;4973516;28;20054;-80
2022/05/22 07:41:44;;;;;;;4.93;2.10;;;;;;;11.69;32.81;98665.25;4999411;28;20081;-82
2022/05/22 07:44:50;;;;;;;4.75;2.28;;;;;;;11.82;32.12;98649.31;5002964;28;20153;-82
2022/05/22 07:47:29;;;;;;;3.55;1.83;;;;;;;11.74;31.60;98646.00;4982630;28;20414;-81
2022/05/22 07:50:25;;;;;;;8.95;3.88;;;;;;;11.78;31.51;98652.88;4943978;28;20101;-82
2022/05/22 07:53:00;;;;;;;6.18;2.30;;;;;;;11.77;31.28;98643.34;5014232;28;20057;-82
2022/05/22 07:55:42;;;;;;;4.80;2.00;;;;;;;12.00;31.25;98656.81;5013928;28;20108;-79
2022/05/22 07:58:25;;;;;;;3.30;2.03;;;;;;;12.06;31.34;98653.19;4996816;28;20495;-80
2022/05/22 08:01:03;;;;;;;3.10;2.03;;;;;;;12.17;31.45;98656.44;4980364;28;20053;-81
2022/05/22 08:03:49;;;;;;;4.57;1.85;;;;;;;12.33;30.68;98649.09;4999367;28;20159;-80
2022/05/22 08:06:35;;;;;;;5.05;2.20;;;;;;;12.40;30.64;98648.06;5014783;28;20050;-80
2022/05/22 08:09:13;;;;;;;2.55;1.98;;;;;;;12.49;30.68;98641.75;4980588;28;20563;-80
2022/05/22 08:11:48;;;;;;;3.90;2.08;;;;;;;12.59;30.07;98650.25;4996135;28;20441;-83
2022/05/22 08:14:17;;;;;;;2.65;1.75;;;;;;;12.34;30.16;98632.47;4980882;28;20054;-82
2022/05/22 08:16:51;;;;;;;3.83;2.05;;;;;;;12.19;29.94;98623.22;4996316;28;20053;-80
2022/05/22 08:19:21;;;;;;;3.35;2.30;;;;;;;12.17;30.01;98634.63;5022569;28;20077;-82
2022/05/22 08:22:08;;;;;;;3.47;2.25;;;;;;;11.96;30.03;98649.94;5003405;28;20049;-83
2022/05/22 08:25:00;;;;;;;4.30;2.50;;;;;;;11.85;30.74;98625.69;5007045;28;20054;-83
2022/05/22 08:27:29;;;;;;;;;;;;;;;11.86;30.86;98637.91;5005687;28;20092;-80
2022/05/22 08:29:56;;;;;;;4.07;2.40;;;;;;;11.94;30.31;98641.25;5006170;28;20417;-81
2022/05/22 08:32:27;;;;;;;4.63;2.20;;;;;;;12.02;29.98;98628.88;4990154;28;20050;-81
2022/05/22 08:34:56;;;;;;;4.53;2.30;;;;;;;11.99;29.92;98638.53;5022069;28;20053;-82
2022/05/22 08:37:23;;;;;;;3.08;2.22;;;;;;;12.03;29.85;98637.56;5023619;28;20083;-81
2022/05/22 08:39:50;;;;;;;3.20;2.28;;;;;;;12.09;29.35;98642.66;5024260;28;20108;-80
2022/05/22 08:42:45;;;;;;;3.83;2.17;;;;;;;11.83;29.51;98599.59;5022138;28;20088;-81
2022/05/22 08:45:15;;;;;;;5.03;2.22;;;;;;;11.91;30.13;98629.97;4994037;28;20449;-84
2022/05/22 08:47:58;;;;;;;2.80;1.85;;;;;;;12.11;28.85;98625.19;5007995;28;20096;-80
2022/05/22 08:50:29;;;;;;;3.53;1.85;;;;;;;12.01;29.39;98624.50;5006936;28;20100;-81
2022/05/22 08:52:56;;;;;;;;;;;;;;;11.79;29.47;98633.69;4991052;28;20495;-82
2022/05/22 09:01:17;;;;;;;3.65;2.30;;;;;;;11.59;28.65;98616.63;5024648;28;20056;-80
2022/05/22 09:03:54;;;;;;;3.55;2.30;;;;;;;11.62;29.29;98602.66;5025231;28;20049;-80
2022/05/22 09:06:29;;;;;;;8.43;3.65;;;;;;;11.85;29.63;98633.53;4999570;28;20050;-81
2022/05/22 09:08:56;;;;;;;3.97;2.28;;;;;;;11.66;29.79;98617.41;5003289;28;20053;-79
2022/05/22 09:11:51;;;;;;;4.72;2.45;;;;;;;11.67;30.14;98643.50;5022265;28;20115;-84
2022/05/22 09:14:41;;;;;;;6.35;2.40;;;;;;;11.56;29.79;98613.25;5021907;28;20092;-84
2022/05/22 09:17:17;;;;;;;5.93;2.90;;;;;;;11.78;29.79;98611.03;5023359;28;20058;-84
2022/05/22 09:19:54;;;;;;;6.93;2.47;;;;;;;12.15;29.64;98612.84;5023439;28;20050;-82
2022/05/22 09:22:24;;;;;;;5.20;2.42;;;;;;;12.25;28.94;98617.00;5022206;28;20054;-83
2022/05/22 09:25:22;;;;;;;4.32;2.72;;;;;;;12.08;28.61;98617.38;5021452;28;20056;-82
2022/05/22 09:28:05;;;;;;;3.03;2.20;;;;;;;11.97;28.44;98617.63;5006272;28;20531;-82
2022/05/22 09:30:34;;;;;;;5.82;2.15;;;;;;;12.06;28.01;98609.56;5032616;28;20141;-81
2022/05/22 09:33:31;;;;;;;4.50;2.53;;;;;;;12.11;28.49;98582.41;5032321;28;20060;-80
2022/05/22 09:36:22;;;;;;;4.65;2.55;;;;;;;12.19;28.38;98590.97;5030888;28;20053;-82
2022/05/22 09:39:31;;;;;;;2.58;2.20;;;;;;;12.08;27.94;98620.84;5033527;28;20073;-79
2022/05/22 09:42:32;;;;;;;5.30;2.40;;;;;;;12.01;27.79;98594.88;5032487;28;20064;-82
2022/05/22 09:45:21;;;;;;;;;;;;;;;12.05;27.66;98609.59;5032768;28;20054;-83
2022/05/22 09:47:53;;;;;;;2.47;2.28;;;;;;;11.97;27.07;98606.28;5008376;28;19929;-81
2022/05/22 09:50:48;;;;;;;3.58;2.80;;;;;;;12.07;27.28;98587.72;5012336;28;20404;-81
2022/05/22 09:53:35;;;;;;;2.30;2.10;;;;;;;12.31;27.30;98616.00;5012664;28;20058;-81
2022/05/22 09:56:17;;;;;;;6.22;2.55;;;;;;;12.08;27.95;98610.38;5012536;28;20094;-80
2022/05/22 09:59:21;;;;;;;4.97;2.40;;;;;;;12.12;27.34;98587.63;5000444;28;20045;-82
2022/05/22 10:01:54;;;;;;;3.55;2.15;;;;;;;12.00;26.64;98580.03;5022830;28;20448;-83
2022/05/22 10:04:39;;;;;;;3.25;2.17;;;;;;;12.01;26.88;98606.19;5021455;28;20095;-83
2022/05/22 10:07:47;;;;;;;4.57;1.98;;;;;;;11.92;26.87;98610.78;5022959;28;20132;-82
2022/05/22 10:10:36;;;;;;;2.53;1.80;;;;;;;11.80;26.73;98604.00;4956384;28;20073;-82
2022/05/22 10:13:17;;;;;;;6.00;2.38;;;;;;;12.02;26.28;98621.00;5028576;28;20515;-81
2022/05/22 10:16:07;;;;;;;3.05;2.05;;;;;;;11.96;26.65;98610.69;5014892;28;20105;-83
2022/05/22 10:18:54;;;;;;;5.40;2.50;;;;;;;11.87;26.75;98582.03;5034632;28;20053;-80
2022/05/22 10:21:52;;;;;;;2.58;2.38;;;;;;;12.02;26.64;98600.06;5036017;28;20053;-82
2022/05/22 10:24:51;;;;;;;4.15;2.42;;;;;;;12.10;26.53;98589.41;5026026;28;20045;-80
2022/05/22 10:27:28;;;;;;;2.38;2.00;;;;;;;12.02;26.65;98562.56;5026877;28;20136;-81
2022/05/22 10:30:02;;;;;;;2.90;2.05;;;;;;;12.25;27.17;98588.19;5026797;28;20153;-80
2022/05/22 10:32:58;;;;;;;2.85;2.05;;;;;;;12.27;27.10;98616.06;5023983;28;20051;-81
2022/05/22 10:35:41;;;;;;;5.72;2.50;;;;;;;12.13;26.68;98597.22;5023472;28;20493;-82
2022/05/22 10:38:31;;;;;;;3.17;2.10;;;;;;;12.19;26.53;98593.56;5024732;28;20519;-81
2022/05/22 10:44:08;;;;;;;3.75;2.08;;;;;;;12.26;25.73;98580.31;5026054;28;20101;-83
2022/05/22 10:46:52;;;;;;;3.38;2.20;;;;;;;12.42;24.89;98611.38;5009638;28;20049;-81
2022/05/22 10:49:25;;;;;;;2.47;1.48;;;;;;;12.27;23.82;98591.63;5026747;28;20066;-86
2022/05/22 10:51:59;;;;;;;4.65;2.10;;;;;;;12.26;24.44;98592.53;5026747;28;20145;-79
2022/05/22 10:54:32;;;;;;;3.65;1.95;;;;;;;12.37;25.07;98597.50;5023781;28;20049;-81
2022/05/22 10:57:17;;;;;;;5.03;2.10;;;;;;;12.50;24.71;98599.81;5015562;28;20162;-79
2022/05/22 10:59:47;;;;;;;3.15;2.20;;;;;;;12.74;24.94;98612.34;4999437;28;20060;-81
2022/05/22 11:02:41;;;;;;;3.05;1.63;;;;;;;12.49;25.29;98600.69;5015913;28;20058;-80
2022/05/22 11:05:19;;;;;;;6.03;2.00;;;;;;;12.36;25.20;98609.75;5014963;28;20058;-79
2022/05/22 11:07:51;;;;;;;3.72;1.95;;;;;;;12.28;25.00;98590.72;5019951;28;20050;-80
2022/05/22 11:10:37;;;;;;;4.63;2.35;;;;;;;12.47;25.74;98599.88;5031194;28;20058;-80
2022/05/22 11:13:09;;;;;;;3.70;1.92;;;;;;;12.69;25.49;98602.84;5027670;28;20066;-80
2022/05/22 11:15:42;;;;;;;4.53;2.15;;;;;;;12.70;24.87;98601.06;5024032;28;20061;-83
2022/05/22 11:18:30;;;;;;;4.65;2.13;;;;;;;12.46;24.84;98600.78;5015225;28;20149;-81
2022/05/22 11:20:59;;;;;;;4.05;1.80;;;;;;;12.35;25.28;98589.72;5015098;28;20053;-80
2022/05/22 11:23:42;;;;;;;4.15;1.98;;;;;;;12.50;25.05;98589.31;4997527;28;20108;-82
2022/05/22 11:26:45;;;;;;;2.75;1.98;;;;;;;12.43;24.81;98603.47;4997685;28;20049;-79
2022/05/22 11:29:19;;;;;;;3.38;1.90;;;;;;;12.35;24.49;98612.41;4975366;28;20061;-83
2022/05/22 11:31:54;;;;;;;3.45;1.77;;;;;;;12.21;24.82;98604.88;5014721;28;20064;-83
2022/05/22 11:34:37;;;;;;;4.22;2.05;;;;;;;12.22;24.38;98609.22;5015139;28;20061;-83
2022/05/22 11:37:07;;;;;;;4.25;2.40;;;;;;;12.26;25.29;98597.75;5014447;28;20054;-81
2022/05/22 11:40:08;;;;;;;4.07;2.03;;;;;;;12.26;25.42;98598.66;5014425;28;20049;-80
2022/05/22 11:42:37;;;;;;;;;;;;;;;12.15;25.04;98602.38;5014782;28;20049;-81
2022/05/22 11:45:34;;;;;;;3.00;1.85;;;;;;;12.22;25.15;98601.38;5014043;28;20384;-81
2022/05/22 11:48:40;;;;;;;2.50;1.70;;;;;;;12.29;25.38;98613.41;4997065;28;20069;-81
2022/05/22 11:51:51;;;;;;;4.57;1.85;;;;;;;12.26;26.03;98632.69;4928254;28;20079;-84
2022/05/22 11:54:52;;;;;;;3.08;1.90;;;;;;;11.97;26.27;98585.34;5014896;28;20046;-79
2022/05/22 11:57:56;;;;;;;3.67;2.17;;;;;;;12.35;26.33;98615.03;5015329;28;20511;-78
2022/05/22 12:00:32;;;;;;;2.58;1.85;;;;;;;12.38;26.78;98602.72;5002246;28;20057;-85
2022/05/22 12:03:08;;;;;;;4.80;2.28;;;;;;;12.31;27.04;98614.25;5009852;28;20064;-83
2022/05/22 12:06:02;;;;;;;5.13;2.38;;;;;;;12.26;26.75;98595.13;4997086;28;20202;-80
2022/05/22 12:08:44;;;;;;;6.65;2.70;;;;;;;12.39;27.06;98593.09;5019664;28;20140;-81
2022/05/22 12:11:17;;;;;;;4.68;2.40;;;;;;;12.59;27.36;98592.63;4997550;28;20089;-80
2022/05/22 12:14:16;;;;;;;4.50;2.42;;;;;;;12.61;27.00;98591.69;5014738;28;20053;-82
2022/05/22 12:17:09;;;;;;;5.82;1.95;;;;;;;12.63;27.30;98599.50;5013717;28;20058;-83
2022/05/22 12:19:50;;;;;;;3.15;2.35;;;;;;;12.64;27.45;98590.75;4996299;28;20419;-81
2022/05/22 12:22:22;;;;;;;3.25;2.45;;;;;;;12.82;27.25;98581.53;5014222;28;20503;-82
2022/05/22 12:24:51;;;;;;;7.53;2.38;;;;;;;12.86;27.15;98591.91;5013835;28;20120;-85
2022/05/22 12:27:25;;;;;;;6.88;2.53;;;;;;;12.72;26.86;98559.97;4980377;28;20054;-83
2022/05/22 12:30:10;;;;;;;7.47;2.40;;;;;;;12.73;27.52;98587.88;4995768;28;20507;-80
2022/05/22 12:32:54;;;;;;;5.32;2.47;;;;;;;12.73;27.25;98589.63;5020296;28;20177;-81
2022/05/22 12:35:24;;;;;;;6.68;2.75;;;;;;;12.76;27.46;98590.44;5019123;28;20061;-84
2022/05/22 12:38:06;;;;;;;4.90;2.80;;;;;;;12.69;27.66;98587.13;5013882;28;20470;-81
2022/05/22 12:41:00;;;;;;;5.32;2.45;;;;;;;12.73;27.88;98580.00;5013139;28;20053;-81
2022/05/22 12:43:28;;;;;;;2.78;1.88;;;;;;;12.66;27.74;98596.78;5024015;28;20259;-82
2022/05/22 12:45:59;;;;;;;3.60;2.15;;;;;;;12.63;28.25;98605.59;5032727;28;20080;-80